Time;durP1;ratioP1;P1;durP2;ratioP2;P2;SDS_P1;SDS_P2;PMS_P1;PMS_P2;Temp;Humidity;BMP_temperature;BMP_pressure;BME280_temperature;BME280_humidity;BME280_pressure;Samples;Min_cycle;Max_cycle;Signal;HPM_P1;HPM_P2
2023/10/01 00:00:37;;;;;;;6.97;2.65;;;;;;;19.93;54.25;102096.41;4979852;28;97902;-73
2023/10/01 00:03:05;;;;;;;16.33;3.22;;;;;;;19.89;54.25;102096.56;4977617;28;97189;-73
2023/10/01 00:05:32;;;;;;;6.88;2.42;;;;;;;19.98;53.74;102099.72;4977638;28;96780;-73
2023/10/01 00:07:59;;;;;;;9.65;3.17;;;;;;;20.07;53.32;102094.72;4982088;28;97643;-73
2023/10/01 00:10:26;;;;;;;9.05;2.70;;;;;;;20.12;53.58;102089.97;4982567;28;98875;-73
2023/10/01 00:12:54;;;;;;;12.05;2.78;;;;;;;20.02;53.67;102086.03;4984164;28;97026;-73
2023/10/01 00:15:22;;;;;;;13.35;3.33;;;;;;;20.13;53.43;102089.03;4984023;28;96813;-73
2023/10/01 00:17:51;;;;;;;7.15;3.40;;;;;;;20.14;53.83;102085.41;4982548;28;98861;-73
2023/10/01 00:20:25;;;;;;;9.45;3.03;;;;;;;19.99;54.15;102078.16;4984291;28;98792;-74
2023/10/01 00:22:54;;;;;;;7.45;3.17;;;;;;;20.05;53.60;102090.38;4985357;28;96788;-76
2023/10/01 00:25:23;;;;;;;7.65;3.03;;;;;;;20.09;53.73;102092.81;4977377;28;96882;-76
2023/10/01 00:27:50;;;;;;;8.10;2.92;;;;;;;20.01;54.12;102088.81;4982608;28;100095;-76
2023/10/01 00:30:17;;;;;;;10.13;2.75;;;;;;;20.02;54.26;102088.72;4982396;28;101020;-76
2023/10/01 00:32:43;;;;;;;12.18;2.47;;;;;;;19.80;54.58;102080.09;4987622;28;96787;-76
2023/10/01 00:35:12;;;;;;;8.60;2.72;;;;;;;19.94;54.17;102082.06;4980696;28;96941;-76
2023/10/01 00:37:39;;;;;;;8.02;2.40;;;;;;;19.95;54.43;102079.28;4981845;28;98968;-78
2023/10/01 00:40:08;;;;;;;4.75;2.38;;;;;;;19.81;54.78;102071.13;4981186;28;99042;-77
2023/10/01 00:42:35;;;;;;;7.25;2.78;;;;;;;19.91;54.27;102075.03;4980800;28;96771;-77
2023/10/01 00:45:02;;;;;;;9.88;2.88;;;;;;;20.01;54.38;102070.03;4981656;28;96891;-76
2023/10/01 00:47:29;;;;;;;7.45;3.05;;;;;;;20.04;54.55;102073.41;4979771;28;99035;-76
2023/10/01 00:49:58;;;;;;;9.57;3.08;;;;;;;20.10;54.86;102073.06;4982951;28;99431;-78
2023/10/01 00:52:27;;;;;;;8.50;2.97;;;;;;;20.15;54.32;102064.81;4980667;28;96918;-79
2023/10/01 00:54:54;;;;;;;8.15;3.22;;;;;;;20.08;54.78;102055.34;4985894;28;97306;-78
2023/10/01 00:57:22;;;;;;;9.85;3.50;;;;;;;20.16;54.49;102069.19;4985438;28;99318;-78
2023/10/01 00:59:50;;;;;;;8.88;3.35;;;;;;;20.11;55.08;102069.44;4979131;28;102083;-78
2023/10/01 01:02:17;;;;;;;12.40;3.00;;;;;;;19.97;55.88;102065.78;4983233;28;96717;-78
2023/10/01 01:04:47;;;;;;;8.43;2.95;;;;;;;19.82;56.42;102068.31;4989394;28;96877;-77
2023/10/01 01:07:16;;;;;;;10.00;3.20;;;;;;;19.91;56.27;102064.28;4979144;28;99472;-79
2023/10/01 01:09:45;;;;;;;14.73;3.13;;;;;;;19.85;56.38;102065.50;4982524;28;99421;-79
2023/10/01 01:12:12;;;;;;;9.90;3.17;;;;;;;20.00;56.59;102063.81;4977235;28;97957;-76
2023/10/01 01:14:44;;;;;;;11.27;3.47;;;;;;;20.09;55.43;102052.56;4985963;28;97155;-77
2023/10/01 01:17:10;;;;;;;10.48;3.05;;;;;;;20.03;55.98;102052.03;4983376;28;99303;-77
2023/10/01 01:19:37;;;;;;;9.60;3.13;;;;;;;20.02;55.99;102047.63;4975812;28;98893;-76
2023/10/01 01:22:03;;;;;;;8.68;3.13;;;;;;;20.15;55.23;102035.28;4982989;28;96798;-76
2023/10/01 01:24:31;;;;;;;10.77;2.90;;;;;;;19.98;56.06;102033.50;4982716;28;97002;-77
2023/10/01 01:27:00;;;;;;;12.18;3.55;;;;;;;19.95;56.90;102044.41;4983833;28;98133;-76
2023/10/01 01:29:33;;;;;;;11.68;3.22;;;;;;;20.04;56.84;102043.91;4977654;28;98840;-76
2023/10/01 01:32:07;;;;;;;8.40;3.30;;;;;;;19.98;57.38;102040.69;4980140;28;97052;-75
2023/10/01 01:34:35;;;;;;;11.48;3.47;;;;;;;19.95;57.88;102047.09;4978183;28;97272;-75
2023/10/01 01:37:05;;;;;;;8.38;3.47;;;;;;;19.77;58.74;102034.66;4985532;28;98982;-75
2023/10/01 01:39:45;;;;;;;7.10;2.90;;;;;;;19.63;58.60;102037.19;4980377;28;98833;-75
2023/10/01 01:42:13;;;;;;;10.25;3.00;;;;;;;19.55;58.34;102042.13;4988162;28;96849;-76
2023/10/01 01:44:39;;;;;;;8.48;3.03;;;;;;;20.00;56.53;102038.78;4978156;28;96954;-75
2023/10/01 01:47:07;;;;;;;7.93;3.00;;;;;;;19.95;56.13;102043.56;4977913;28;99002;-76
2023/10/01 01:49:34;;;;;;;11.40;3.33;;;;;;;19.86;56.02;102044.91;4978531;28;99311;-75
2023/10/01 01:52:03;;;;;;;6.95;3.55;;;;;;;19.95;55.70;102047.09;4982549;28;96775;-76
2023/10/01 01:54:31;;;;;;;10.88;3.53;;;;;;;19.87;55.80;102041.28;4989309;28;97612;-76
2023/10/01 01:57:00;;;;;;;11.98;3.25;;;;;;;19.87;55.76;102031.41;4982999;28;97329;-76
2023/10/01 01:59:28;;;;;;;11.77;4.38;;;;;;;19.84;55.63;102022.66;4979298;28;99205;-76
2023/10/01 02:01:55;;;;;;;12.48;3.13;;;;;;;19.63;55.76;102023.78;4982069;28;96974;-76
2023/10/01 02:04:22;;;;;;;9.80;3.70;;;;;;;19.81;55.66;102034.44;4977495;28;96975;-77
2023/10/01 02:06:50;;;;;;;9.90;3.38;;;;;;;20.00;54.96;102034.31;4978492;28;98863;-75
2023/10/01 02:09:19;;;;;;;14.73;3.65;;;;;;;19.92;54.68;102032.97;4978621;28;99149;-75
2023/10/01 02:11:47;;;;;;;10.30;3.70;;;;;;;20.00;54.45;102036.97;4985607;28;96718;-76
2023/10/01 02:14:30;;;;;;;8.27;3.60;;;;;;;20.02;53.97;102031.53;4981072;28;96932;-76
2023/10/01 02:17:05;;;;;;;9.52;3.67;;;;;;;19.92;54.61;102023.13;4989018;28;98933;-75
2023/10/01 02:19:35;;;;;;;11.65;3.78;;;;;;;19.97;54.02;102034.44;4984053;28;101323;-75
2023/10/01 02:22:05;;;;;;;10.73;3.45;;;;;;;19.77;54.40;102030.16;4978946;28;96992;-75
2023/10/01 02:24:44;;;;;;;11.82;3.53;;;;;;;19.81;54.51;102025.53;4978484;28;97587;-75
2023/10/01 02:27:11;;;;;;;13.07;4.35;;;;;;;19.93;54.17;102018.63;4979289;28;100970;-77
2023/10/01 02:30:11;;;;;;;19.88;4.45;;;;;;;19.71;54.60;102018.91;4981298;28;98798;-74
2023/10/01 02:32:33;;;;;;;12.45;4.00;;;;;;;19.89;54.05;102013.41;4982685;28;96747;-74
2023/10/01 02:34:59;;;;;;;6.53;3.45;;;;;;;19.83;54.07;102018.22;4977314;28;96992;-75
2023/10/01 02:37:29;;;;;;;7.28;3.17;;;;;;;19.90;53.93;102019.63;4979547;28;99096;-74
2023/10/01 02:39:56;;;;;;;9.15;3.45;;;;;;;19.76;54.16;102011.47;4980413;28;98803;-75
2023/10/01 02:42:21;;;;;;;14.95;3.50;;;;;;;19.72;54.10;102004.53;4978616;28;96889;-75
2023/10/01 02:44:53;;;;;;;;;;;;;;;19.79;54.35;102000.59;4976107;28;96875;-75
2023/10/01 02:47:20;;;;;;;15.40;4.15;;;;;;;19.83;54.22;102005.69;4979056;28;98435;-77
2023/10/01 02:49:52;;;;;;;8.43;3.60;;;;;;;19.83;54.30;102005.69;4982990;28;99555;-76
2023/10/01 02:52:19;;;;;;;11.80;3.90;;;;;;;19.81;54.57;101998.69;4980322;28;96841;-76
2023/10/01 02:54:53;;;;;;;9.60;3.50;;;;;;;19.96;54.33;101986.25;4977852;28;96860;-76
2023/10/01 02:57:23;;;;;;;12.95;4.07;;;;;;;19.68;54.93;101993.13;4977876;28;99010;-75
2023/10/01 03:00:20;;;;;;;12.20;3.72;;;;;;;19.80;54.78;101997.81;4979193;28;98842;-74
2023/10/01 03:02:51;;;;;;;9.73;3.67;;;;;;;19.71;55.05;101997.44;4986608;28;96721;-75
2023/10/01 03:05:26;;;;;;;11.10;4.20;;;;;;;19.56;55.16;101992.94;4979336;28;96744;-75
2023/10/01 03:07:53;;;;;;;8.43;3.90;;;;;;;19.52;55.24;101994.00;4978772;28;98350;-77
2023/10/01 03:10:26;;;;;;;10.27;3.15;;;;;;;19.73;54.58;102004.47;4982131;28;98235;-77
2023/10/01 03:12:53;;;;;;;10.52;3.65;;;;;;;19.82;54.26;102003.13;4980139;28;96808;-76
2023/10/01 03:15:25;;;;;;;8.93;4.00;;;;;;;19.67;54.75;101999.44;4980892;28;97205;-76
2023/10/01 03:17:57;;;;;;;14.25;3.83;;;;;;;19.86;53.94;102002.00;4980502;28;98487;-76
2023/10/01 03:23:12;;;;;;;8.27;3.20;;;;;;;19.59;54.64;102007.03;4976242;28;96804;-75
2023/10/01 03:25:42;;;;;;;10.70;3.53;;;;;;;19.48;54.95;101996.00;4977051;28;96779;-76
2023/10/01 03:28:25;;;;;;;13.23;3.72;;;;;;;19.44;55.47;101999.75;4978085;28;102293;-77
2023/10/01 03:31:01;;;;;;;9.43;2.97;;;;;;;19.61;55.02;102004.25;4980762;28;99428;-74
2023/10/01 03:33:30;;;;;;;8.37;3.07;;;;;;;19.57;54.81;102008.91;4977632;28;99889;-74
2023/10/01 03:35:57;;;;;;;9.20;2.88;;;;;;;19.48;55.38;102004.03;4978075;28;97105;-75
2023/10/01 03:38:24;;;;;;;8.70;3.63;;;;;;;19.58;55.23;102007.09;4978755;28;98941;-75
2023/10/01 03:41:02;;;;;;;9.68;3.47;;;;;;;19.49;55.24;102005.78;4979770;28;97491;-75
2023/10/01 03:43:35;;;;;;;10.45;3.50;;;;;;;19.44;55.09;102005.97;4979790;28;96636;-74
2023/10/01 03:46:14;;;;;;;9.85;2.97;;;;;;;19.60;54.98;102008.75;4980884;28;96768;-74
2023/10/01 03:49:00;;;;;;;8.93;3.10;;;;;;;19.43;55.51;102006.91;4983030;28;99253;-74
2023/10/01 03:51:52;;;;;;;10.98;3.17;;;;;;;19.30;55.49;102007.63;4980891;28;98935;-76
2023/10/01 03:54:19;;;;;;;6.63;2.90;;;;;;;19.44;55.28;102000.63;4988115;28;96753;-76
2023/10/01 03:56:55;;;;;;;10.38;3.30;;;;;;;19.36;55.56;102002.81;4987024;28;97409;-77
2023/10/01 03:59:22;;;;;;;8.07;3.10;;;;;;;19.50;55.45;102004.81;4982490;28;98970;-76
2023/10/01 04:01:59;;;;;;;8.93;2.90;;;;;;;19.47;55.16;101997.81;4977877;28;98783;-78
2023/10/01 04:04:27;;;;;;;11.85;3.47;;;;;;;19.61;54.82;101996.22;4986319;28;97010;-75
2023/10/01 04:06:55;;;;;;;9.00;3.38;;;;;;;19.60;54.96;101991.81;4984521;28;97158;-76
2023/10/01 04:09:26;;;;;;;8.07;3.10;;;;;;;19.45;55.23;101988.94;4991325;28;99639;-74
2023/10/01 04:11:52;;;;;;;14.43;3.75;;;;;;;19.37;55.45;101979.56;4995564;28;99212;-76
2023/10/01 04:14:19;;;;;;;8.82;3.05;;;;;;;19.49;55.51;101979.81;4994685;28;96797;-76
2023/10/01 04:16:48;;;;;;;6.28;3.10;;;;;;;19.46;55.60;101990.72;4987582;28;101820;-77
2023/10/01 04:19:18;;;;;;;8.65;3.63;;;;;;;19.42;55.60;101988.25;4987642;28;98836;-78
2023/10/01 04:21:50;;;;;;;7.43;3.28;;;;;;;19.48;55.56;101988.84;4998533;28;98860;-77
2023/10/01 04:24:17;;;;;;;8.48;2.70;;;;;;;19.47;55.37;101987.09;4991689;28;99796;-77
2023/10/01 04:26:44;;;;;;;8.00;3.10;;;;;;;19.73;54.83;101980.34;4995190;28;96929;-77
2023/10/01 04:29:11;;;;;;;9.18;3.00;;;;;;;19.63;54.96;101994.31;4985433;28;98932;-77
2023/10/01 04:31:47;;;;;;;11.40;3.60;;;;;;;19.43;55.83;101990.84;4993319;28;98961;-76
2023/10/01 04:34:17;;;;;;;10.13;2.88;;;;;;;19.73;55.10;101993.75;4989483;28;96708;-76
2023/10/01 04:36:45;;;;;;;8.90;3.08;;;;;;;19.70;54.87;101998.38;4988512;28;96896;-76
2023/10/01 04:39:12;;;;;;;9.20;3.15;;;;;;;19.53;55.34;101995.75;4994145;28;99113;-76
2023/10/01 04:41:39;;;;;;;9.40;3.47;;;;;;;19.55;55.42;101999.22;4986166;28;97686;-76
2023/10/01 04:44:13;;;;;;;7.95;3.42;;;;;;;19.57;55.13;101997.31;4985096;28;96938;-75
2023/10/01 04:46:40;;;;;;;7.65;2.97;;;;;;;19.46;55.50;101995.22;4992410;28;97107;-75
2023/10/01 04:49:26;;;;;;;9.02;3.35;;;;;;;19.39;55.68;101991.94;4982598;28;99455;-76
2023/10/01 04:51:55;;;;;;;9.90;3.40;;;;;;;19.58;55.28;102005.28;4992375;28;101884;-75
2023/10/01 04:54:22;;;;;;;10.88;3.70;;;;;;;19.67;54.90;101996.75;4993656;28;96749;-75
2023/10/01 04:56:50;;;;;;;9.73;3.05;;;;;;;19.73;55.13;101990.19;4990693;28;96782;-76
2023/10/01 04:59:17;;;;;;;6.93;3.10;;;;;;;19.70;54.81;101999.25;4990152;28;99366;-76
2023/10/01 05:01:43;;;;;;;8.23;3.20;;;;;;;19.64;54.91;102004.09;4986455;28;98402;-76
2023/10/01 05:04:11;;;;;;;8.38;3.00;;;;;;;19.58;54.99;102004.41;4992679;28;97871;-76
2023/10/01 05:06:40;;;;;;;10.05;3.20;;;;;;;19.59;55.26;102006.16;4994667;28;96944;-74
2023/10/01 05:09:08;;;;;;;9.15;3.20;;;;;;;19.74;54.42;102000.84;4989459;28;99304;-75
2023/10/01 05:11:34;;;;;;;8.35;3.22;;;;;;;19.67;54.49;101996.75;4992236;28;100451;-75
2023/10/01 05:14:04;;;;;;;10.90;3.45;;;;;;;19.76;54.33;102004.28;4991443;28;97098;-75
2023/10/01 05:16:32;;;;;;;12.20;3.42;;;;;;;19.67;54.82;102002.13;4994230;28;96961;-75
2023/10/01 05:19:10;;;;;;;7.95;3.13;;;;;;;19.53;55.06;102001.97;4985468;28;99325;-75
2023/10/01 05:21:41;;;;;;;7.63;3.35;;;;;;;19.61;54.72;102010.50;4988040;28;100257;-75
2023/10/01 05:24:10;;;;;;;11.38;3.47;;;;;;;19.63;54.88;102007.69;4976680;28;96812;-76
2023/10/01 05:26:38;;;;;;;7.65;3.40;;;;;;;19.69;54.65;102012.78;4975674;28;101172;-75
2023/10/01 05:29:06;;;;;;;8.45;3.33;;;;;;;19.62;55.08;102009.56;4980153;28;99256;-74
2023/10/01 05:31:34;;;;;;;8.43;3.35;;;;;;;19.87;54.37;102009.09;4974563;28;98825;-74
2023/10/01 05:34:01;;;;;;;9.40;3.05;;;;;;;19.78;54.64;102005.09;4976330;28;96700;-73
2023/10/01 05:36:29;;;;;;;10.07;3.55;;;;;;;19.78;54.22;102014.94;4977506;28;96844;-74
2023/10/01 05:38:55;;;;;;;9.35;4.35;;;;;;;19.63;54.77;102013.06;4983661;28;99202;-74
2023/10/01 05:41:32;;;;;;;9.18;2.75;;;;;;;19.74;54.78;102013.38;4983040;28;99470;-74
2023/10/01 05:44:01;;;;;;;7.45;3.00;;;;;;;19.64;55.27;102013.00;4985854;28;96721;-73
2023/10/01 05:46:28;;;;;;;12.50;3.05;;;;;;;19.67;54.76;102020.03;4976301;28;97411;-76
2023/10/01 05:48:55;;;;;;;7.40;3.03;;;;;;;19.75;54.93;102023.16;4979372;28;99498;-78
2023/10/01 05:51:30;;;;;;;12.27;4.00;;;;;;;19.76;54.70;102014.16;4979025;28;99466;-77
2023/10/01 05:53:56;;;;;;;8.45;3.45;;;;;;;19.78;54.85;102004.22;4973642;28;97952;-77
2023/10/01 05:56:36;;;;;;;10.57;3.10;;;;;;;19.66;54.73;101999.50;4978303;28;96905;-74
2023/10/01 05:59:03;;;;;;;12.30;3.40;;;;;;;19.79;55.07;102000.59;4978013;28;99317;-74
2023/10/01 06:01:33;;;;;;;11.45;4.03;;;;;;;19.64;55.37;101988.00;4980716;28;99647;-74
2023/10/01 06:04:00;;;;;;;11.55;3.40;;;;;;;19.79;55.06;101992.53;4978029;28;96773;-75
2023/10/01 06:06:27;;;;;;;8.65;2.92;;;;;;;20.08;54.43;101991.81;4982539;28;96969;-74
2023/10/01 06:08:59;;;;;;;9.43;2.72;;;;;;;20.14;54.30;101985.25;4981034;28;99382;-74
2023/10/01 06:11:39;;;;;;;8.75;3.03;;;;;;;20.21;53.91;101983.94;4974676;28;98773;-74
2023/10/01 06:14:06;;;;;;;11.95;3.58;;;;;;;20.22;54.07;101994.56;4973791;28;97253;-75
2023/10/01 06:16:37;;;;;;;12.43;3.28;;;;;;;20.33;53.04;101994.03;4975441;28;96821;-76
2023/10/01 06:19:11;;;;;;;11.50;3.47;;;;;;;20.33;53.04;101995.84;4977901;28;99789;-76
2023/10/01 06:21:39;;;;;;;15.98;2.75;;;;;;;20.35;52.82;101993.94;4975299;28;97896;-76
2023/10/01 06:24:10;;;;;;;7.72;3.05;;;;;;;20.39;52.92;101988.31;4974383;28;96734;-76
2023/10/01 06:26:42;;;;;;;8.85;2.85;;;;;;;20.30;53.16;101989.66;4985327;28;97084;-77
2023/10/01 06:29:11;;;;;;;7.97;3.20;;;;;;;20.34;53.20;101995.75;4975541;28;99355;-76
2023/10/01 06:31:52;;;;;;;8.68;2.53;;;;;;;20.37;53.23;102000.06;4985357;28;99330;-76
2023/10/01 06:34:21;;;;;;;7.32;2.90;;;;;;;20.36;52.81;101985.78;4987715;28;96896;-76
2023/10/01 06:36:50;;;;;;;10.93;3.00;;;;;;;20.41;52.81;101990.91;4985784;28;97057;-76
2023/10/01 06:39:20;;;;;;;9.30;3.65;;;;;;;20.54;52.24;102000.00;4990955;28;98915;-76
2023/10/01 06:41:49;;;;;;;15.32;3.45;;;;;;;20.41;52.58;101998.97;4990820;28;98764;-75
2023/10/01 06:44:15;;;;;;;10.77;3.17;;;;;;;20.38;52.76;102002.69;4991022;28;96919;-74
2023/10/01 06:46:44;;;;;;;10.05;2.95;;;;;;;20.57;52.40;101999.81;4988739;28;97130;-75
2023/10/01 06:49:10;;;;;;;10.05;3.33;;;;;;;20.37;52.76;101994.69;4983334;28;99342;-75
2023/10/01 06:51:43;;;;;;;11.48;3.58;;;;;;;20.47;52.29;101987.88;4984861;28;99009;-77
2023/10/01 06:54:11;;;;;;;7.60;2.88;;;;;;;20.39;52.74;101998.19;4982850;28;98031;-78
2023/10/01 06:56:44;;;;;;;8.45;2.80;;;;;;;20.14;52.69;101996.84;4987062;28;97025;-75
2023/10/01 06:59:17;;;;;;;10.57;3.83;;;;;;;20.49;52.32;101991.31;4985214;28;97798;-77
2023/10/01 07:01:47;;;;;;;9.40;3.30;;;;;;;20.52;52.14;101994.72;4987848;28;99610;-78
2023/10/01 07:04:18;;;;;;;12.52;3.53;;;;;;;20.71;51.66;101994.50;4990475;28;96741;-78
2023/10/01 07:06:45;;;;;;;7.07;2.92;;;;;;;20.61;52.45;102001.38;4976542;28;96815;-75
2023/10/01 07:09:27;;;;;;;16.92;3.20;;;;;;;20.92;51.28;101993.25;4978640;28;97802;-76
2023/10/01 07:11:56;;;;;;;9.05;3.08;;;;;;;20.72;51.80;102000.75;4976689;28;98792;-76
2023/10/01 07:14:43;;;;;;;11.23;3.30;;;;;;;20.99;50.80;102005.38;4977223;28;96947;-77
2023/10/01 07:17:13;;;;;;;10.00;3.33;;;;;;;20.97;50.50;102012.66;4977339;28;97421;-77
2023/10/01 07:19:40;;;;;;;10.52;2.72;;;;;;;21.16;50.52;102006.22;4975086;28;99456;-77
2023/10/01 07:22:07;;;;;;;7.97;3.03;;;;;;;20.78;50.77;102006.63;4976726;28;99194;-75
2023/10/01 07:24:34;;;;;;;13.38;3.03;;;;;;;20.95;50.72;102014.56;4976853;28;97227;-76
2023/10/01 07:27:05;;;;;;;7.53;3.10;;;;;;;20.90;50.71;102021.16;4975688;28;98599;-77
2023/10/01 07:29:34;;;;;;;10.60;3.42;;;;;;;20.89;51.23;102009.53;4978983;28;99255;-77
2023/10/01 07:32:07;;;;;;;7.57;2.75;;;;;;;21.06;50.14;102009.44;4978761;28;99848;-76
2023/10/01 07:34:35;;;;;;;8.18;2.80;;;;;;;21.00;50.23;102017.00;4978209;28;97207;-76
2023/10/01 07:37:04;;;;;;;5.97;2.70;;;;;;;21.14;50.39;102018.81;4978413;28;97630;-76
2023/10/01 07:39:32;;;;;;;8.57;3.08;;;;;;;21.09;49.90;102017.28;4978612;28;100792;-76
2023/10/01 07:41:59;;;;;;;8.80;3.03;;;;;;;21.06;50.29;102022.88;4978822;28;101653;-78
2023/10/01 07:44:27;;;;;;;9.68;3.55;;;;;;;21.26;49.94;102029.78;4978972;28;96752;-80
2023/10/01 07:46:54;;;;;;;12.77;3.38;;;;;;;21.49;49.35;102028.38;4981832;28;97321;-77
2023/10/01 07:49:22;;;;;;;9.88;2.95;;;;;;;21.52;48.74;102025.50;4977910;28;99168;-80
2023/10/01 07:51:50;;;;;;;6.60;2.85;;;;;;;21.53;48.67;102029.91;4978779;28;101362;-79
2023/10/01 07:54:22;;;;;;;10.70;3.03;;;;;;;22.01;47.82;102031.41;4977361;28;97961;-79
2023/10/01 07:56:51;;;;;;;8.07;2.95;;;;;;;22.22;46.77;102026.50;4978539;28;97316;-80
2023/10/01 07:59:29;;;;;;;7.97;3.10;;;;;;;22.60;45.77;102021.31;4974786;28;102000;-78
2023/10/01 08:02:09;;;;;;;9.38;2.80;;;;;;;22.84;44.36;102016.19;4978641;28;99159;-80
2023/10/01 08:07:22;;;;;;;7.72;3.03;;;;;;;22.87;43.53;102013.25;4975868;28;96879;-79
2023/10/01 08:09:52;;;;;;;10.30;3.90;;;;;;;22.60;43.79;102006.00;4976954;28;99071;-81
2023/10/01 08:12:19;;;;;;;13.38;3.35;;;;;;;22.40;44.25;102008.28;4974290;28;99939;-72
2023/10/01 08:15:15;;;;;;;6.00;2.75;;;;;;;22.19;45.13;102015.91;4980598;28;96719;-78
2023/10/01 08:17:34;;;;;;;11.50;3.30;;;;;;;22.33;44.98;102012.34;4975111;28;96909;-79
2023/10/01 08:20:14;;;;;;;8.82;3.13;;;;;;;22.40;45.11;102001.06;4978741;28;99073;-78
2023/10/01 08:23:09;;;;;;;8.52;2.88;;;;;;;22.35;45.62;102003.19;4977366;28;98285;-78
2023/10/01 08:25:32;;;;;;;9.40;3.10;;;;;;;22.23;45.67;102002.19;4979235;28;97368;-78
2023/10/01 08:31:01;;;;;;;11.00;3.35;;;;;;;22.50;45.34;102014.81;4979694;28;98688;-80
2023/10/01 08:33:32;;;;;;;10.13;2.83;;;;;;;22.08;46.40;102013.06;4978990;28;98607;-78
2023/10/01 08:36:12;;;;;;;10.18;3.90;;;;;;;22.32;45.34;102022.22;4975033;28;98601;-78
2023/10/01 08:38:38;;;;;;;12.30;2.90;;;;;;;22.29;45.75;102019.75;4981083;28;97368;-78
2023/10/01 08:41:05;;;;;;;7.72;3.40;;;;;;;22.40;45.82;102019.91;4980550;28;98940;-78
2023/10/01 08:43:34;;;;;;;10.50;3.35;;;;;;;22.47;45.54;102018.56;4982020;28;99033;-79
2023/10/01 08:46:11;;;;;;;10.43;3.13;;;;;;;22.49;45.63;102011.25;4977828;28;98249;-79
2023/10/01 08:48:39;;;;;;;8.77;3.03;;;;;;;22.72;45.10;102014.25;4981677;28;96994;-79
2023/10/01 08:51:11;;;;;;;8.57;2.50;;;;;;;22.51;45.38;102021.94;4977705;28;99253;-82
2023/10/01 08:53:41;;;;;;;9.25;2.95;;;;;;;22.51;45.41;102021.94;4979313;28;98505;-78
2023/10/01 08:56:13;;;;;;;9.15;3.35;;;;;;;22.78;45.30;102019.25;4977681;28;96760;-78
2023/10/01 08:58:48;;;;;;;9.93;2.85;;;;;;;22.84;45.29;102029.66;4979179;28;96931;-78
2023/10/01 09:01:19;;;;;;;9.18;2.80;;;;;;;22.92;44.44;102028.16;4978976;28;101197;-78
2023/10/01 09:03:55;;;;;;;8.02;2.85;;;;;;;22.80;44.74;102030.81;4981015;28;98907;-79
2023/10/01 09:06:28;;;;;;;9.60;3.63;;;;;;;22.77;44.85;102025.63;4980477;28;96755;-79
2023/10/01 09:08:59;;;;;;;6.07;2.75;;;;;;;22.77;45.13;102014.84;4979549;28;97287;-78
2023/10/01 09:11:35;;;;;;;7.20;2.70;;;;;;;22.92;44.95;102027.28;4980769;28;99767;-79
2023/10/01 09:14:17;;;;;;;8.57;2.97;;;;;;;22.82;44.79;102012.72;4980311;28;100286;-79
2023/10/01 09:16:44;;;;;;;7.35;2.67;;;;;;;22.86;45.14;102016.91;4977721;28;97365;-78
2023/10/01 09:19:34;;;;;;;11.07;3.03;;;;;;;22.46;45.63;102030.28;4985365;28;96926;-79
2023/10/01 09:22:10;;;;;;;6.90;2.85;;;;;;;22.72;45.01;102023.19;4983974;28;97858;-77
2023/10/01 09:24:39;;;;;;;7.88;2.85;;;;;;;22.80;44.96;102020.88;4976336;28;99073;-79
2023/10/01 09:27:09;;;;;;;10.27;3.00;;;;;;;23.04;44.36;102021.94;4982929;28;96951;-78
2023/10/01 09:29:43;;;;;;;15.50;5.20;;;;;;;22.96;44.65;102028.81;4983688;28;96936;-77
2023/10/01 09:32:13;;;;;;;9.88;3.65;;;;;;;23.21;44.13;102028.88;4983777;28;100614;-78
2023/10/01 09:34:47;;;;;;;7.55;3.13;;;;;;;23.37;43.96;102016.06;4982428;28;98903;-78
2023/10/01 09:37:33;;;;;;;13.25;4.05;;;;;;;23.35;43.66;102022.56;4983000;28;96746;-79
2023/10/01 09:40:04;;;;;;;11.88;3.30;;;;;;;23.40;43.37;102015.00;4982750;28;96838;-79
2023/10/01 09:42:44;;;;;;;17.98;3.50;;;;;;;23.19;43.61;102008.38;4981052;28;99034;-79
2023/10/01 09:45:26;;;;;;;6.45;3.13;;;;;;;23.53;42.80;101998.84;4982193;28;101212;-78
2023/10/01 09:48:02;;;;;;;13.60;4.82;;;;;;;23.49;43.17;102000.91;4989161;28;97219;-79
2023/10/01 09:50:39;;;;;;;11.70;3.45;;;;;;;24.19;42.21;102002.16;4984879;28;97360;-79
2023/10/01 09:53:12;;;;;;;9.70;3.63;;;;;;;24.59;41.23;101996.53;4981699;28;101056;-79
2023/10/01 09:55:47;;;;;;;12.20;4.18;;;;;;;24.76;40.57;101988.00;4985308;28;98270;-78
2023/10/01 09:58:24;;;;;;;13.88;3.70;;;;;;;24.76;40.03;101989.84;4983569;28;96842;-78
2023/10/01 10:00:51;;;;;;;14.18;3.70;;;;;;;24.36;40.70;101991.94;4983355;28;97168;-78
2023/10/01 10:03:19;;;;;;;10.70;3.53;;;;;;;24.76;40.43;101979.88;4980626;28;98991;-77
2023/10/01 10:05:47;;;;;;;13.45;3.28;;;;;;;24.46;40.95;101995.72;4979150;28;99109;-78
2023/10/01 10:08:15;;;;;;;12.18;3.50;;;;;;;24.78;40.71;102004.09;4989251;28;97144;-80
2023/10/01 10:10:48;;;;;;;14.18;4.15;;;;;;;24.43;40.45;102004.88;4985036;28;96735;-78
2023/10/01 10:13:36;;;;;;;12.15;4.03;;;;;;;24.89;39.67;101994.22;4982631;28;99748;-80
2023/10/01 10:16:28;;;;;;;10.00;3.25;;;;;;;25.04;39.40;101994.03;4983755;28;99104;-78
2023/10/01 10:19:20;;;;;;;11.63;3.65;;;;;;;24.78;39.50;101993.28;4985740;28;97109;-74
2023/10/01 10:22:16;;;;;;;8.55;3.63;;;;;;;24.69;39.54;102011.06;4985419;28;96832;-74
2023/10/01 10:24:46;;;;;;;12.57;6.18;;;;;;;25.22;38.84;102000.72;4982698;28;98943;-75
2023/10/01 10:27:17;;;;;;;9.75;3.35;;;;;;;25.10;39.48;102009.78;4981684;28;99520;-74
2023/10/01 10:30:14;;;;;;;11.35;4.32;;;;;;;24.95;38.98;101999.16;4984008;28;99771;-75
2023/10/01 10:32:44;;;;;;;;;;;;;;;24.56;39.58;102010.25;4981075;28;97196;-74
2023/10/01 10:35:29;;;;;;;12.52;4.30;;;;;;;24.94;39.20;102000.13;4982910;28;97883;-76
2023/10/01 10:37:57;;;;;;;10.57;5.20;;;;;;;25.02;40.12;102003.13;4977962;28;98797;-74
2023/10/01 10:40:23;;;;;;;14.75;4.82;;;;;;;24.76;39.51;101990.69;4979941;28;97432;-75
2023/10/01 10:43:19;;;;;;;11.68;3.80;;;;;;;25.02;38.83;101994.16;4975713;28;97174;-74
2023/10/01 10:46:00;;;;;;;15.35;4.70;;;;;;;24.55;39.02;101989.59;4973608;28;99310;-74
2023/10/01 10:48:50;;;;;;;10.27;4.47;;;;;;;24.47;39.25;101992.03;4978422;28;98860;-75
2023/10/01 10:51:47;;;;;;;12.95;4.60;;;;;;;24.72;39.27;101978.41;4975438;28;96858;-74
2023/10/01 10:54:28;;;;;;;12.15;4.35;;;;;;;25.01;38.23;101984.31;4979192;28;97343;-75
2023/10/01 10:56:54;;;;;;;15.05;5.20;;;;;;;24.85;38.83;101989.16;4973446;28;101134;-75
2023/10/01 10:59:25;;;;;;;13.38;5.25;;;;;;;25.05;38.67;101988.53;4979091;28;100087;-75
2023/10/01 11:01:56;;;;;;;15.50;6.45;;;;;;;24.98;38.56;101993.53;4983351;28;97373;-74
2023/10/01 11:04:30;;;;;;;11.00;4.70;;;;;;;24.95;38.61;102001.88;4977222;28;96840;-75
2023/10/01 11:07:02;;;;;;;10.45;4.05;;;;;;;25.15;38.37;101991.38;4978510;28;100720;-75
2023/10/01 11:09:32;;;;;;;16.38;4.60;;;;;;;25.00;38.30;101990.72;4978825;28;101504;-74
2023/10/01 11:12:05;;;;;;;13.90;4.47;;;;;;;25.20;37.74;101992.75;4982953;28;97356;-75
2023/10/01 11:14:32;;;;;;;11.13;5.03;;;;;;;24.97;37.54;101991.81;4982195;28;97324;-74
2023/10/01 11:17:00;;;;;;;13.23;5.47;;;;;;;24.77;37.47;101986.16;4976711;28;99084;-75
2023/10/01 11:19:28;;;;;;;12.35;5.13;;;;;;;24.73;37.51;101980.13;4979068;28;99150;-75
2023/10/01 11:21:59;;;;;;;10.55;4.55;;;;;;;25.08;37.46;101987.41;4976807;28;96884;-68
2023/10/01 11:24:31;;;;;;;12.20;4.28;;;;;;;24.83;37.16;101970.34;4955985;28;99419;-67
2023/10/01 11:27:14;;;;;;;12.80;5.10;;;;;;;24.65;37.53;101977.13;4955678;28;98768;-67
2023/10/01 11:29:41;;;;;;;12.15;4.70;;;;;;;24.57;38.05;101974.16;4961003;28;100396;-75
2023/10/01 11:32:10;;;;;;;9.90;3.92;;;;;;;24.59;37.96;101956.84;4972131;28;97947;-75
2023/10/01 11:34:45;;;;;;;9.75;3.83;;;;;;;24.30;38.21;101965.38;4974219;28;97087;-75
2023/10/01 11:37:16;;;;;;;7.40;3.70;;;;;;;24.27;38.25;101974.59;4979310;28;98968;-76
2023/10/01 11:39:49;;;;;;;15.70;4.15;;;;;;;24.22;38.39;101966.81;4973417;28;99097;-75
2023/10/01 11:42:26;;;;;;;8.48;3.55;;;;;;;24.34;38.40;101956.09;4981703;28;97284;-75
2023/10/01 11:44:53;;;;;;;9.52;4.28;;;;;;;23.88;38.90;101958.56;4977683;28;96862;-75
2023/10/01 11:47:31;;;;;;;12.30;5.82;;;;;;;24.29;38.42;101969.94;4978654;28;98976;-75
2023/10/01 11:50:07;;;;;;;15.52;5.07;;;;;;;24.77;36.72;101965.41;4975105;28;99063;-76